createdAt,value
2022-11-27T00:02:23.620Z,2.50
2022-11-27T00:04:53.288Z,2.60
2022-11-27T00:07:20.399Z,2.60
2022-11-27T00:09:47.769Z,2.60
2022-11-27T00:12:14.893Z,2.60
2022-11-27T00:14:49.622Z,2.50
2022-11-27T00:17:18.420Z,2.50
2022-11-27T00:19:45.842Z,2.50
2022-11-27T00:22:15.971Z,2.50
2022-11-27T00:24:43.998Z,2.50
2022-11-27T00:27:15.558Z,2.60
2022-11-27T00:29:45.532Z,2.70
2022-11-27T00:32:17.473Z,2.70
2022-11-27T00:34:47.246Z,2.70
2022-11-27T00:37:15.083Z,2.70
2022-11-27T00:39:42.401Z,2.70
2022-11-27T00:42:09.631Z,2.70
2022-11-27T00:44:37.228Z,2.70
2022-11-27T00:47:04.708Z,2.60
2022-11-27T00:49:34.772Z,2.70
2022-11-27T00:52:05.312Z,2.70
2022-11-27T00:54:33.857Z,2.70
2022-11-27T00:57:00.978Z,2.80
2022-11-27T00:59:32.832Z,2.80
2022-11-27T01:02:00.160Z,2.80
2022-11-27T01:04:30.612Z,2.80
2022-11-27T01:07:02.393Z,2.80
2022-11-27T01:09:30.024Z,2.70
2022-11-27T01:12:01.484Z,2.60
2022-11-27T01:14:38.594Z,2.70
2022-11-27T01:17:06.164Z,2.60
2022-11-27T01:19:33.555Z,2.70
2022-11-27T01:22:00.672Z,2.80
2022-11-27T01:24:30.413Z,2.80
2022-11-27T01:27:01.720Z,2.80
2022-11-27T01:29:29.173Z,2.90
2022-11-27T01:31:56.316Z,2.90
2022-11-27T01:34:23.681Z,2.90
2022-11-27T01:36:50.901Z,2.70
2022-11-27T01:39:21.598Z,2.70
2022-11-27T01:41:49.281Z,2.80
2022-11-27T01:44:26.020Z,2.80
2022-11-27T01:47:01.726Z,2.80
2022-11-27T01:49:34.016Z,2.80
2022-11-27T01:52:09.505Z,2.90
2022-11-27T01:54:46.982Z,2.90
2022-11-27T01:57:19.023Z,2.90
2022-11-27T01:59:48.060Z,2.80
2022-11-27T02:02:17.720Z,2.80
2022-11-27T02:04:45.774Z,2.90
2022-11-27T02:07:13.085Z,2.90
2022-11-27T02:09:40.877Z,2.90
2022-11-27T02:12:51.298Z,2.80
2022-11-27T02:15:25.480Z,2.70
2022-11-27T02:18:28.472Z,2.80
2022-11-27T02:21:10.914Z,2.80
2022-11-27T02:23:42.853Z,2.80
2022-11-27T02:26:34.872Z,2.80
2022-11-27T02:29:05.409Z,2.80
2022-11-27T02:31:53.236Z,2.80
2022-11-27T02:34:45.242Z,2.80
2022-11-27T02:37:39.297Z,2.80
2022-11-27T02:40:28.174Z,2.80
2022-11-27T02:43:05.899Z,2.90
2022-11-27T02:45:40.528Z,2.90
2022-11-27T02:48:13.305Z,3.00
2022-11-27T02:50:41.749Z,3.00
2022-11-27T02:53:17.007Z,3.00
2022-11-27T02:55:45.820Z,3.00
2022-11-27T02:58:20.023Z,3.10
2022-11-27T03:00:56.765Z,3.10
2022-11-27T03:03:32.645Z,3.10
2022-11-27T03:06:07.603Z,3.00
2022-11-27T03:09:18.428Z,3.00
2022-11-27T03:11:47.956Z,3.00
2022-11-27T03:14:20.273Z,3.00
2022-11-27T03:17:02.299Z,3.00
2022-11-27T03:19:42.593Z,3.10
2022-11-27T03:22:15.010Z,3.10
2022-11-27T03:24:45.242Z,3.10
2022-11-27T03:27:18.393Z,3.20
2022-11-27T03:30:07.955Z,3.10
2022-11-27T03:32:35.269Z,3.20
2022-11-27T03:35:03.607Z,3.10
2022-11-27T03:37:36.328Z,3.00
2022-11-27T03:40:07.062Z,3.00
2022-11-27T03:43:03.460Z,3.10
2022-11-27T03:46:04.505Z,3.10
2022-11-27T03:48:50.068Z,3.00
2022-11-27T03:51:38.187Z,3.00
2022-11-27T03:54:13.825Z,3.10
2022-11-27T03:56:51.313Z,3.10
2022-11-27T03:59:21.884Z,3.20
2022-11-27T04:01:52.092Z,3.10
2022-11-27T04:04:19.496Z,3.10
2022-11-27T04:06:51.816Z,3.10
2022-11-27T04:09:19.054Z,3.10
2022-11-27T04:11:53.192Z,3.10
2022-11-27T04:14:22.557Z,3.10
2022-11-27T04:16:52.205Z,3.10
2022-11-27T04:19:24.062Z,3.10
2022-11-27T04:21:51.516Z,3.00
2022-11-27T04:24:18.580Z,3.00
2022-11-27T04:26:48.153Z,3.00
2022-11-27T04:29:15.293Z,3.00
2022-11-27T04:31:42.660Z,3.00
2022-11-27T04:34:12.019Z,3.10
2022-11-27T04:36:42.473Z,3.20
2022-11-27T04:39:13.311Z,3.20
2022-11-27T04:41:47.731Z,3.20
2022-11-27T04:44:17.111Z,3.20
2022-11-27T04:46:44.603Z,3.30
2022-11-27T04:49:13.980Z,3.20
2022-11-27T04:51:41.423Z,3.30
2022-11-27T04:54:13.068Z,3.40
2022-11-27T04:56:45.098Z,3.40
2022-11-27T04:59:17.102Z,3.40
2022-11-27T05:01:44.442Z,3.40
2022-11-27T05:04:14.153Z,3.40
2022-11-27T05:06:44.118Z,3.40
2022-11-27T05:09:19.537Z,3.40
2022-11-27T05:11:52.446Z,3.40
2022-11-27T05:14:26.948Z,3.50
2022-11-27T05:16:57.673Z,3.40
2022-11-27T05:19:30.040Z,3.40
2022-11-27T05:21:59.929Z,3.40
2022-11-27T05:24:30.322Z,3.40
2022-11-27T05:27:00.189Z,3.40
2022-11-27T05:29:27.378Z,3.40
2022-11-27T05:31:54.885Z,3.40
2022-11-27T05:34:24.698Z,3.40
2022-11-27T05:36:52.108Z,3.40
2022-11-27T05:39:22.124Z,3.40
2022-11-27T05:41:51.868Z,3.40
2022-11-27T05:44:18.937Z,3.40
2022-11-27T05:46:48.556Z,3.30
2022-11-27T05:49:16.356Z,3.30
2022-11-27T05:51:50.417Z,3.30
2022-11-27T05:54:19.417Z,3.30
2022-11-27T05:56:51.703Z,3.30
2022-11-27T05:59:18.981Z,3.20
2022-11-27T06:01:49.638Z,3.20
2022-11-27T06:04:21.646Z,3.20
2022-11-27T06:06:49.114Z,3.20
2022-11-27T06:09:18.705Z,3.20
2022-11-27T06:11:46.044Z,3.10
2022-11-27T06:14:15.711Z,3.20
2022-11-27T06:16:45.631Z,3.20
2022-11-27T06:19:12.790Z,3.20
2022-11-27T06:21:40.123Z,3.20
2022-11-27T06:24:10.684Z,3.00
2022-11-27T06:26:40.451Z,3.00
2022-11-27T06:29:11.077Z,3.10
2022-11-27T06:31:44.322Z,3.10
2022-11-27T06:34:13.920Z,3.10
2022-11-27T06:36:46.475Z,3.10
2022-11-27T06:39:18.133Z,3.10
2022-11-27T06:41:45.577Z,3.10
2022-11-27T06:44:12.618Z,3.00
2022-11-27T06:46:40.122Z,3.00
2022-11-27T06:49:07.267Z,3.10
2022-11-27T06:51:34.594Z,3.10
2022-11-27T06:54:04.379Z,3.20
2022-11-27T06:56:34.337Z,3.20
2022-11-27T06:59:03.872Z,3.30
2022-11-27T07:01:32.174Z,3.30
2022-11-27T07:03:59.917Z,3.40
2022-11-27T07:06:32.047Z,3.40
2022-11-27T07:08:59.205Z,3.50
2022-11-27T07:11:29.650Z,3.50
2022-11-27T07:13:59.044Z,3.50
2022-11-27T07:16:27.961Z,3.50
2022-11-27T07:18:57.994Z,3.50
2022-11-27T07:21:26.324Z,3.40
2022-11-27T07:23:54.182Z,3.50
2022-11-27T07:26:30.829Z,3.50
2022-11-27T07:28:58.163Z,3.50
2022-11-27T07:31:30.166Z,3.60
2022-11-27T07:33:58.091Z,3.60
2022-11-27T07:36:28.262Z,3.60
2022-11-27T07:38:58.308Z,3.70
2022-11-27T07:41:33.692Z,3.70
2022-11-27T07:44:03.690Z,3.80
2022-11-27T07:46:31.309Z,3.70
2022-11-27T07:49:03.883Z,3.60
2022-11-27T07:51:33.680Z,3.50
2022-11-27T07:54:00.723Z,3.50
2022-11-27T07:56:30.753Z,3.50
2022-11-27T07:59:00.410Z,3.60
2022-11-27T08:01:27.860Z,3.60
2022-11-27T08:03:57.229Z,3.60
2022-11-27T08:06:28.860Z,3.70
2022-11-27T08:08:58.102Z,3.80
2022-11-27T08:11:31.457Z,3.80
2022-11-27T08:14:04.640Z,3.80
2022-11-27T08:16:35.453Z,3.70
2022-11-27T08:19:05.086Z,3.80
2022-11-27T08:21:34.784Z,3.90
2022-11-27T08:24:04.742Z,3.80
2022-11-27T08:26:32.274Z,3.80
2022-11-27T08:29:06.581Z,3.80
2022-11-27T08:31:38.500Z,3.90
2022-11-27T08:34:08.301Z,3.90
2022-11-27T08:36:37.894Z,4.00
2022-11-27T08:39:07.313Z,4.00
2022-11-27T08:41:42.027Z,3.90
2022-11-27T08:44:09.572Z,3.90
2022-11-27T08:46:39.556Z,3.90
2022-11-27T08:49:06.898Z,3.90
2022-11-27T08:51:34.357Z,4.10
2022-11-27T08:54:01.898Z,4.10
2022-11-27T08:56:29.715Z,4.10
2022-11-27T08:58:59.297Z,4.20
2022-11-27T09:01:31.496Z,4.20
2022-11-27T09:03:59.683Z,4.30
2022-11-27T09:06:31.406Z,4.30
2022-11-27T09:09:02.439Z,4.30
2022-11-27T09:11:33.452Z,4.20
2022-11-27T09:14:02.094Z,4.20
2022-11-27T09:16:31.824Z,4.20
2022-11-27T09:18:59.325Z,4.20
2022-11-27T09:21:30.557Z,4.20
2022-11-27T09:23:59.420Z,4.30
2022-11-27T09:26:31.870Z,4.40
2022-11-27T09:29:08.780Z,4.40
2022-11-27T09:31:36.448Z,4.40
2022-11-27T09:34:06.607Z,4.50
2022-11-27T09:36:33.983Z,4.50
2022-11-27T09:39:03.833Z,4.40
2022-11-27T09:41:40.264Z,4.40
2022-11-27T09:44:30.911Z,4.30
2022-11-27T09:47:33.664Z,4.30
2022-11-27T09:50:17.105Z,4.40
2022-11-27T09:53:05.572Z,4.60
2022-11-27T09:55:43.559Z,4.60
2022-11-27T09:58:36.557Z,4.70
2022-11-27T10:01:16.348Z,4.80
2022-11-27T10:03:45.843Z,4.70
2022-11-27T10:06:50.072Z,4.70
2022-11-27T10:09:37.681Z,4.80
2022-11-27T10:12:38.048Z,4.80
2022-11-27T10:15:16.128Z,4.90
2022-11-27T10:18:21.345Z,4.70
2022-11-27T10:20:56.520Z,4.80
2022-11-27T10:23:46.934Z,4.70
2022-11-27T10:26:40.223Z,4.80
2022-11-27T10:29:19.280Z,4.90
2022-11-27T10:32:04.626Z,4.90
2022-11-27T10:34:40.403Z,4.90
2022-11-27T10:37:12.971Z,4.90
2022-11-27T10:40:09.541Z,5.00
2022-11-27T10:42:50.190Z,4.90
2022-11-27T10:45:23.360Z,4.80
2022-11-27T10:47:51.002Z,4.90
2022-11-27T10:50:20.992Z,4.90
2022-11-27T10:53:04.249Z,5.00
2022-11-27T10:55:40.383Z,5.10
2022-11-27T10:58:40.671Z,5.00
2022-11-27T11:01:11.203Z,4.90
2022-11-27T11:03:39.233Z,5.00
2022-11-27T11:06:21.885Z,5.00
2022-11-27T11:09:12.735Z,5.10
2022-11-27T11:11:40.087Z,5.20
2022-11-27T11:14:23.427Z,5.30
2022-11-27T11:16:54.959Z,5.30
2022-11-27T11:19:29.117Z,5.30
2022-11-27T11:21:56.647Z,5.40
2022-11-27T11:24:32.037Z,5.50
2022-11-27T11:27:05.050Z,5.60
2022-11-27T11:29:51.458Z,5.60
2022-11-27T11:32:24.250Z,5.70
2022-11-27T11:35:01.119Z,5.60
2022-11-27T11:37:40.032Z,5.60
2022-11-27T11:40:16.212Z,5.70
2022-11-27T11:42:55.625Z,5.60
2022-11-27T11:45:23.537Z,5.70
2022-11-27T11:47:52.741Z,5.50
2022-11-27T11:50:47.857Z,5.40
2022-11-27T11:53:32.438Z,5.40
2022-11-27T11:56:21.487Z,5.40
2022-11-27T11:59:04.316Z,5.40
2022-11-27T12:01:54.240Z,5.50
2022-11-27T12:04:35.953Z,5.60
2022-11-27T12:07:51.810Z,5.60
2022-11-27T12:10:28.147Z,5.70
2022-11-27T12:12:59.769Z,5.60
2022-11-27T12:15:52.665Z,5.70
2022-11-27T12:18:34.175Z,5.80
2022-11-27T12:21:27.789Z,5.80
2022-11-27T12:24:23.649Z,5.90
2022-11-27T12:27:00.213Z,6.00
2022-11-27T12:29:47.758Z,6.00
2022-11-27T12:32:24.067Z,5.90
2022-11-27T12:35:06.459Z,6.00
2022-11-27T12:38:22.852Z,6.00
2022-11-27T12:41:18.800Z,6.00
2022-11-27T12:43:55.849Z,6.00
2022-11-27T12:46:43.008Z,6.00
2022-11-27T12:49:27.416Z,6.00
2022-11-27T12:52:19.706Z,5.80
2022-11-27T12:55:00.897Z,5.80
2022-11-27T12:57:51.804Z,5.70
2022-11-27T13:00:29.105Z,5.70
2022-11-27T13:03:29.747Z,5.70
2022-11-27T13:06:22.165Z,5.70
2022-11-27T13:09:12.589Z,5.80
2022-11-27T13:11:41.733Z,5.80
2022-11-27T13:14:20.476Z,5.80
2022-11-27T13:16:53.424Z,5.80
2022-11-27T13:19:52.587Z,5.90
2022-11-27T13:22:34.613Z,5.90
2022-11-27T13:25:04.847Z,6.00
2022-11-27T13:27:35.422Z,5.90
2022-11-27T13:30:11.837Z,5.90
2022-11-27T13:32:53.567Z,5.80
2022-11-27T13:35:50.836Z,5.70
2022-11-27T13:38:26.186Z,5.70
2022-11-27T13:40:58.548Z,5.70
2022-11-27T13:43:43.166Z,5.70
2022-11-27T13:46:28.724Z,5.70
2022-11-27T13:49:03.460Z,5.70
2022-11-27T13:51:38.379Z,5.70
2022-11-27T13:54:22.277Z,5.60
2022-11-27T13:56:50.755Z,5.50
2022-11-27T13:59:23.842Z,5.50
2022-11-27T14:01:58.803Z,5.50
2022-11-27T14:04:31.324Z,5.30
2022-11-27T14:07:08.065Z,5.30
2022-11-27T14:09:57.833Z,5.30
2022-11-27T14:12:31.990Z,5.40
2022-11-27T14:15:17.133Z,5.30
2022-11-27T14:17:47.458Z,5.30
2022-11-27T14:20:17.672Z,5.20
2022-11-27T14:23:13.154Z,5.20
2022-11-27T14:25:44.109Z,5.20
2022-11-27T14:28:27.609Z,5.20
2022-11-27T14:30:58.265Z,5.20
2022-11-27T14:33:33.191Z,5.20
2022-11-27T14:36:07.534Z,5.20
2022-11-27T14:38:35.833Z,5.20
2022-11-27T14:41:11.540Z,5.20
2022-11-27T14:43:41.521Z,5.20
2022-11-27T14:46:20.954Z,5.20
2022-11-27T14:48:54.768Z,5.10
2022-11-27T14:51:29.743Z,5.10
2022-11-27T14:54:13.408Z,5.00
2022-11-27T14:56:43.404Z,5.00
2022-11-27T14:59:18.756Z,5.00
2022-11-27T15:01:59.797Z,5.00
2022-11-27T15:04:29.164Z,5.00
2022-11-27T15:07:00.275Z,5.00
2022-11-27T15:09:43.409Z,5.00
2022-11-27T15:12:23.849Z,5.00
2022-11-27T15:15:01.589Z,5.00
2022-11-27T15:17:34.613Z,5.00
2022-11-27T15:20:04.895Z,5.00
2022-11-27T15:22:38.372Z,5.00
2022-11-27T15:25:30.099Z,5.00
2022-11-27T15:28:01.880Z,5.00
2022-11-27T15:30:31.758Z,5.00
2022-11-27T15:33:01.249Z,5.00
2022-11-27T15:35:32.510Z,5.00
2022-11-27T15:38:09.023Z,5.00
2022-11-27T15:40:40.664Z,5.00
2022-11-27T15:43:16.367Z,5.00
2022-11-27T15:45:46.155Z,4.90
2022-11-27T15:48:18.365Z,4.90
2022-11-27T15:50:52.023Z,4.90
2022-11-27T15:53:21.578Z,4.90
2022-11-27T15:55:57.507Z,4.80
2022-11-27T15:58:24.718Z,4.90
2022-11-27T16:00:56.779Z,4.90
2022-11-27T16:03:24.005Z,4.80
2022-11-27T16:05:51.521Z,4.80
2022-11-27T16:08:18.596Z,4.80
2022-11-27T16:10:45.948Z,4.80
2022-11-27T16:13:13.154Z,4.80
2022-11-27T16:15:40.539Z,4.90
2022-11-27T16:18:10.738Z,4.90
2022-11-27T16:20:46.109Z,4.90
2022-11-27T16:23:13.500Z,4.90
2022-11-27T16:25:43.458Z,4.90
2022-11-27T16:28:11.200Z,4.90
2022-11-27T16:30:41.090Z,4.90
2022-11-27T16:33:08.390Z,4.80
2022-11-27T16:35:40.972Z,4.80
2022-11-27T16:38:10.819Z,4.80
2022-11-27T16:40:42.708Z,4.80
2022-11-27T16:43:13.118Z,4.80
2022-11-27T16:45:40.788Z,4.80
2022-11-27T16:48:12.714Z,4.70
2022-11-27T16:50:40.526Z,4.70
2022-11-27T16:53:11.131Z,4.70
2022-11-27T16:55:41.093Z,4.70
2022-11-27T16:58:08.812Z,4.70
2022-11-27T17:00:36.723Z,4.70
2022-11-27T17:03:06.751Z,4.70
2022-11-27T17:05:40.690Z,4.60
2022-11-27T17:08:12.501Z,4.60
2022-11-27T17:10:40.464Z,4.60
2022-11-27T17:13:14.675Z,4.60
2022-11-27T17:15:45.703Z,4.60
2022-11-27T17:18:16.988Z,4.50
2022-11-27T17:20:51.920Z,4.50
2022-11-27T17:23:21.244Z,4.40
2022-11-27T17:25:51.424Z,4.50
2022-11-27T17:28:18.790Z,4.40
2022-11-27T17:30:46.209Z,4.30
2022-11-27T17:33:13.736Z,4.20
2022-11-27T17:35:45.606Z,4.20
2022-11-27T17:38:14.994Z,4.20
2022-11-27T17:40:44.659Z,4.10
2022-11-27T17:43:17.754Z,3.90
2022-11-27T17:45:48.372Z,3.90
2022-11-27T17:48:15.847Z,3.90
2022-11-27T17:50:48.085Z,3.80
2022-11-27T17:53:20.858Z,3.70
2022-11-27T17:55:50.627Z,3.50
2022-11-27T17:58:18.066Z,3.40
2022-11-27T18:00:48.451Z,3.40
2022-11-27T18:03:22.844Z,3.40
2022-11-27T18:05:55.048Z,3.50
2022-11-27T18:08:24.829Z,3.50
2022-11-27T18:10:52.479Z,3.40
2022-11-27T18:13:19.588Z,3.40
2022-11-27T18:15:48.227Z,3.30
2022-11-27T18:18:17.704Z,3.20
2022-11-27T18:20:50.549Z,3.10
2022-11-27T18:23:20.151Z,3.00
2022-11-27T18:25:52.635Z,3.00
2022-11-27T18:28:22.116Z,3.00
2022-11-27T18:30:52.137Z,2.90
2022-11-27T18:33:26.472Z,2.90
2022-11-27T18:35:54.022Z,2.90
2022-11-27T18:38:23.753Z,2.80
2022-11-27T18:40:51.129Z,2.90
2022-11-27T18:43:18.374Z,2.90
2022-11-27T18:45:46.048Z,2.90
2022-11-27T18:48:15.713Z,2.80
2022-11-27T18:50:48.681Z,2.70
2022-11-27T18:53:18.144Z,2.60
2022-11-27T18:55:52.886Z,2.60
2022-11-27T18:58:20.366Z,2.60
2022-11-27T19:00:50.384Z,2.60
2022-11-27T19:03:22.559Z,2.50
2022-11-27T19:05:52.244Z,2.40
2022-11-27T19:08:19.334Z,2.40
2022-11-27T19:10:46.894Z,2.40
2022-11-27T19:13:14.164Z,2.40
2022-11-27T19:15:53.643Z,2.30
2022-11-27T19:18:24.380Z,2.20
2022-11-27T19:20:52.713Z,2.20
2022-11-27T19:23:20.175Z,2.20
2022-11-27T19:25:51.295Z,2.20
2022-11-27T19:28:19.760Z,2.20
2022-11-27T19:30:47.332Z,2.20
2022-11-27T19:33:17.767Z,2.20
2022-11-27T19:35:45.304Z,2.30
2022-11-27T19:38:14.542Z,2.20
2022-11-27T19:40:42.044Z,2.10
2022-11-27T19:43:11.606Z,2.00
2022-11-27T19:45:38.989Z,2.00
2022-11-27T19:48:08.274Z,1.90
2022-11-27T19:50:38.917Z,1.90
2022-11-27T19:53:09.254Z,1.90
2022-11-27T19:55:38.169Z,1.80
2022-11-27T19:58:11.175Z,1.80
2022-11-27T20:00:38.775Z,1.80
2022-11-27T20:03:10.283Z,1.70
2022-11-27T20:05:37.759Z,1.70
2022-11-27T20:08:05.236Z,1.70
2022-11-27T20:10:34.889Z,1.70
2022-11-27T20:13:02.827Z,1.70
2022-11-27T20:15:34.637Z,1.70
2022-11-27T20:18:04.263Z,1.60
2022-11-27T20:20:34.183Z,1.60
2022-11-27T20:23:04.210Z,1.50
2022-11-27T20:25:34.067Z,1.60
2022-11-27T20:28:06.301Z,1.60
2022-11-27T20:30:36.771Z,1.60
2022-11-27T20:33:07.848Z,1.60
2022-11-27T20:35:41.832Z,1.60
2022-11-27T20:38:09.218Z,1.60
2022-11-27T20:40:38.739Z,1.50
2022-11-27T20:43:05.976Z,1.60
2022-11-27T20:45:42.514Z,1.50
2022-11-27T20:48:11.272Z,1.60
2022-11-27T20:50:39.983Z,1.60
2022-11-27T20:53:12.036Z,1.60
2022-11-27T20:55:42.962Z,1.60
2022-11-27T20:58:10.454Z,1.70
2022-11-27T21:00:40.399Z,1.70
2022-11-27T21:03:08.018Z,1.70
2022-11-27T21:05:35.531Z,1.70
2022-11-27T21:08:12.265Z,1.80
2022-11-27T21:10:42.356Z,1.80
2022-11-27T21:13:11.620Z,1.80
2022-11-27T21:15:48.855Z,1.90
2022-11-27T21:18:16.155Z,1.90
2022-11-27T21:20:45.832Z,1.90
2022-11-27T21:23:13.039Z,1.90
2022-11-27T21:25:43.647Z,1.90
2022-11-27T21:28:13.208Z,2.00
2022-11-27T21:30:42.693Z,2.00
2022-11-27T21:33:11.884Z,2.00
2022-11-27T21:35:40.556Z,1.90
2022-11-27T21:38:08.209Z,1.90
2022-11-27T21:40:38.632Z,1.90
2022-11-27T21:43:10.528Z,1.80
2022-11-27T21:45:38.755Z,1.70
2022-11-27T21:48:09.949Z,1.70
2022-11-27T21:50:42.286Z,1.70
2022-11-27T21:53:09.522Z,1.70
2022-11-27T21:55:46.908Z,1.60
2022-11-27T21:58:14.206Z,1.60
2022-11-27T22:00:44.428Z,1.60
2022-11-27T22:03:16.378Z,1.60
2022-11-27T22:05:46.833Z,1.60
2022-11-27T22:08:18.295Z,1.50
2022-11-27T22:10:50.653Z,1.40
2022-11-27T22:13:22.799Z,1.40
2022-11-27T22:15:50.381Z,1.40
2022-11-27T22:18:22.154Z,1.40
2022-11-27T22:20:52.402Z,1.30
2022-11-27T22:23:22.858Z,1.20
2022-11-27T22:25:50.346Z,1.20
2022-11-27T22:28:21.965Z,1.20
2022-11-27T22:30:55.527Z,1.10
2022-11-27T22:33:25.879Z,1.10
2022-11-27T22:35:53.303Z,1.10
2022-11-27T22:38:22.537Z,1.20
2022-11-27T22:40:49.962Z,1.20
2022-11-27T22:43:17.774Z,1.20
2022-11-27T22:45:47.911Z,1.20
2022-11-27T22:48:19.616Z,1.30
2022-11-27T22:50:59.405Z,1.30
2022-11-27T22:53:28.673Z,1.30
2022-11-27T22:56:08.453Z,1.30
2022-11-27T22:58:41.648Z,1.30
2022-11-27T23:01:14.552Z,1.30
2022-11-27T23:03:45.007Z,1.20
2022-11-27T23:06:17.521Z,1.10
2022-11-27T23:08:48.283Z,1.10
2022-11-27T23:11:24.575Z,1.00
2022-11-27T23:13:53.232Z,0.90
2022-11-27T23:16:24.124Z,0.90
2022-11-27T23:18:53.779Z,1.00
2022-11-27T23:21:24.868Z,1.10
2022-11-27T23:23:54.178Z,1.10
2022-11-27T23:26:26.398Z,1.20
2022-11-27T23:28:56.640Z,1.20
2022-11-27T23:31:31.246Z,1.20
2022-11-27T23:34:01.661Z,1.30
2022-11-27T23:36:34.635Z,1.40
2022-11-27T23:39:04.397Z,1.30
2022-11-27T23:41:34.622Z,1.30
2022-11-27T23:44:04.143Z,1.40
2022-11-27T23:46:41.031Z,1.40
2022-11-27T23:49:08.115Z,1.40
2022-11-27T23:51:38.656Z,1.30
2022-11-27T23:54:10.616Z,1.30
2022-11-27T23:56:38.797Z,1.20
2022-11-27T23:59:11.240Z,1.30
